Time;durP1;ratioP1;P1;durP2;ratioP2;P2;SDS_P1;SDS_P2;PMS_P1;PMS_P2;Temp;Humidity;BMP_temperature;BMP_pressure;BME280_temperature;BME280_humidity;BME280_pressure;Samples;Min_cycle;Max_cycle;Signal;HPM_P1;HPM_P2
2022/05/04 00:01:31;;;;;;;5.15;1.80;;;;;;;23.26;40.68;101747.41;4180069;28;20438;-65
2022/05/04 00:03:39;;;;;;;4.40;1.65;;;;;;;23.22;40.64;101755.50;4179520;28;20472;-66
2022/05/04 00:05:40;;;;;;;3.90;1.95;;;;;;;23.22;40.71;101749.09;4180875;28;20091;-66
2022/05/04 00:07:45;;;;;;;2.95;1.90;;;;;;;23.18;40.56;101748.78;4180861;28;20029;-65
2022/05/04 00:09:46;;;;;;;3.42;1.95;;;;;;;23.16;40.42;101745.47;4181012;28;20442;-65
2022/05/04 00:11:47;;;;;;;5.22;2.10;;;;;;;23.14;40.67;101730.94;4180826;28;20033;-65
2022/05/04 00:13:48;;;;;;;4.88;1.83;;;;;;;23.15;40.21;101734.56;4180374;28;20049;-65
2022/05/04 00:15:50;;;;;;;3.22;1.50;;;;;;;23.15;40.35;101723.41;4181034;28;20044;-65
2022/05/04 00:17:51;;;;;;;3.60;1.75;;;;;;;23.08;40.63;101718.06;4184552;28;20037;-64
2022/05/04 00:19:56;;;;;;;4.38;2.42;;;;;;;23.11;40.09;101720.31;4180398;28;20033;-65
2022/05/04 00:21:57;;;;;;;6.28;3.38;;;;;;;23.14;40.38;101721.72;4180711;28;20025;-65
2022/05/04 00:23:59;;;;;;;3.20;2.40;;;;;;;23.15;40.03;101724.25;4180899;28;20044;-65
2022/05/04 00:26:04;;;;;;;4.15;2.30;;;;;;;23.14;40.35;101730.94;4180465;28;20473;-65
2022/05/04 00:28:05;;;;;;;2.78;1.50;;;;;;;23.14;40.37;101725.38;4181184;28;20099;-65
2022/05/04 00:30:07;;;;;;;3.50;1.80;;;;;;;23.06;40.25;101711.94;4180989;28;20041;-65
2022/05/04 00:32:10;;;;;;;1.77;1.48;;;;;;;23.09;40.42;101714.16;4187299;28;20118;-66
2022/05/04 00:34:11;;;;;;;3.97;1.52;;;;;;;23.13;40.49;101725.63;4185626;28;20718;-66
2022/05/04 00:36:13;;;;;;;3.42;1.60;;;;;;;23.12;40.54;101727.56;4167185;28;20558;-66
2022/05/04 00:38:14;;;;;;;69.55;6.97;;;;;;;23.10;40.62;101715.88;4164999;28;20661;-63
2022/05/04 00:40:15;;;;;;;29.40;3.25;;;;;;;23.12;40.66;101726.75;4170487;28;20045;-65
2022/05/04 00:42:19;;;;;;;5.47;1.63;;;;;;;23.13;40.24;101717.25;4179635;28;20044;-64
2022/05/04 00:44:21;;;;;;;8.70;1.83;;;;;;;23.14;40.44;101719.78;4165481;28;20041;-66
2022/05/04 00:46:22;;;;;;;4.32;1.67;;;;;;;23.01;40.31;101703.56;4167060;28;20530;-66
2022/05/04 00:48:24;;;;;;;7.53;1.92;;;;;;;22.97;40.45;101719.19;4194907;28;20430;-66
2022/05/04 00:50:25;;;;;;;5.57;1.48;;;;;;;23.10;40.13;101738.19;4192119;28;20041;-64
2022/05/04 00:52:27;;;;;;;7.07;1.95;;;;;;;23.14;40.47;101758.00;4179492;28;20048;-65
2022/05/04 00:54:28;;;;;;;8.00;1.58;;;;;;;23.13;40.63;101754.38;4176956;28;20103;-65
2022/05/04 00:56:30;;;;;;;5.75;1.65;;;;;;;23.13;40.75;101759.97;4186657;28;20053;-66
2022/05/04 01:00:53;;;;;;;7.95;1.80;;;;;;;23.09;40.49;101778.38;4196441;28;20114;-64
2022/05/04 01:02:54;;;;;;;3.35;1.50;;;;;;;23.06;40.73;101784.53;4189410;28;20482;-65
2022/05/04 01:04:56;;;;;;;5.30;1.60;;;;;;;23.06;40.27;101774.19;4193582;28;20037;-64
2022/05/04 01:06:58;;;;;;;5.30;1.50;;;;;;;23.08;40.44;101768.31;4184785;28;20033;-65
2022/05/04 01:08:59;;;;;;;5.97;1.23;;;;;;;23.12;40.44;101772.25;4189033;28;20430;-65
2022/05/04 01:11:01;;;;;;;8.50;1.73;;;;;;;23.12;40.64;101761.09;4176026;28;20036;-66
2022/05/04 01:13:05;;;;;;;5.35;1.60;;;;;;;23.07;40.37;101744.31;4200041;28;20078;-66
2022/05/04 01:15:07;;;;;;;5.82;1.83;;;;;;;23.11;40.79;101742.66;4200116;28;20040;-65
2022/05/04 01:17:11;;;;;;;3.88;1.40;;;;;;;23.08;40.85;101743.19;4194734;28;20066;-65
2022/05/04 01:19:13;;;;;;;4.07;1.77;;;;;;;22.98;40.77;101740.41;4196610;28;20098;-67
2022/05/04 01:21:17;;;;;;;2.53;1.40;;;;;;;23.07;40.25;101767.50;4199940;28;20075;-66
2022/05/04 01:23:19;;;;;;;2.28;1.20;;;;;;;23.10;40.20;101768.91;4195546;28;20086;-64
2022/05/04 01:25:20;;;;;;;3.20;1.42;;;;;;;23.06;40.35;101745.44;4191062;28;20058;-65
2022/05/04 01:27:25;;;;;;;4.60;1.80;;;;;;;23.01;40.50;101737.91;4173172;28;20029;-65
2022/05/04 01:29:26;;;;;;;3.13;1.48;;;;;;;23.06;40.45;101756.63;4166672;28;20083;-65
2022/05/04 01:31:28;;;;;;;3.88;1.48;;;;;;;23.07;40.39;101769.44;4195104;28;20086;-65
2022/05/04 01:33:35;;;;;;;3.58;1.48;;;;;;;23.06;40.75;101788.16;4194869;28;20110;-65
2022/05/04 01:35:37;;;;;;;3.47;1.20;;;;;;;22.95;40.61;101789.22;4192973;28;20507;-64
2022/05/04 01:37:41;;;;;;;2.22;1.30;;;;;;;23.01;40.59;101804.91;4196563;28;20044;-64
2022/05/04 01:39:48;;;;;;;7.07;1.35;;;;;;;23.08;40.54;101815.78;4199742;28;20476;-65
2022/05/04 01:42:13;;;;;;;2.38;1.20;;;;;;;23.10;40.45;101799.63;4194526;28;20093;-66
2022/05/04 01:44:15;;;;;;;3.47;1.40;;;;;;;22.91;40.69;101753.75;4174888;28;20190;-66
2022/05/04 01:46:16;;;;;;;2.45;1.17;;;;;;;23.11;40.55;101792.91;4178465;28;20102;-64
2022/05/04 01:48:21;;;;;;;3.45;1.30;;;;;;;23.04;40.67;101798.75;4193330;28;20093;-66
2022/05/04 01:50:22;;;;;;;1.88;1.17;;;;;;;23.05;40.85;101805.19;4185884;28;20044;-64
2022/05/04 01:52:23;;;;;;;1.45;1.20;;;;;;;23.06;40.65;101813.28;4175403;28;20554;-65
2022/05/04 01:54:26;;;;;;;2.13;1.17;;;;;;;23.10;40.72;101821.13;4177951;28;20449;-65
2022/05/04 01:56:27;;;;;;;3.22;1.75;;;;;;;23.11;40.61;101814.41;4198986;28;20025;-65
2022/05/04 01:58:28;;;;;;;4.60;1.23;;;;;;;22.79;40.48;101762.38;4199022;28;20036;-65
2022/05/04 02:00:30;;;;;;;3.88;1.30;;;;;;;23.08;40.83;101821.38;4188011;28;20041;-65
2022/05/04 02:02:33;;;;;;;5.13;1.30;;;;;;;23.07;40.55;101823.31;4166260;28;20095;-65
2022/05/04 02:04:38;;;;;;;2.90;1.25;;;;;;;23.09;40.63;101831.41;4166578;28;20071;-66
2022/05/04 02:06:40;;;;;;;4.40;1.20;;;;;;;23.09;40.29;101817.47;4163193;28;20037;-65
2022/05/04 02:08:46;;;;;;;6.22;1.30;;;;;;;22.88;40.84;101788.63;4165668;28;20045;-66
2022/05/04 02:10:47;;;;;;;1.88;1.00;;;;;;;23.04;41.00;101811.88;4165780;28;20485;-66
2022/05/04 02:12:57;;;;;;;3.97;1.40;;;;;;;23.08;40.87;101815.78;4166143;28;20037;-65
2022/05/04 02:14:59;;;;;;;4.40;1.10;;;;;;;23.07;40.84;101814.94;4165766;28;20099;-66
2022/05/04 02:17:00;;;;;;;1.75;1.25;;;;;;;23.00;40.93;101791.19;4166265;28;20064;-65
2022/05/04 02:19:02;;;;;;;3.33;1.10;;;;;;;23.06;40.88;101790.13;4166002;28;20115;-65
2022/05/04 02:21:06;;;;;;;3.40;1.35;;;;;;;23.06;40.67;101785.38;4165918;28;20037;-65
2022/05/04 02:23:14;;;;;;;4.30;1.00;;;;;;;22.98;40.78;101766.34;4165960;28;20041;-65
2022/05/04 02:25:15;;;;;;;3.38;1.10;;;;;;;23.06;40.49;101767.78;4165905;28;20076;-65
2022/05/04 02:27:17;;;;;;;5.00;1.02;;;;;;;22.84;41.05;101752.03;4166004;28;20096;-66
2022/05/04 02:29:18;;;;;;;3.67;1.50;;;;;;;23.00;40.70;101771.66;4174732;28;20090;-67
2022/05/04 02:31:19;;;;;;;2.33;1.30;;;;;;;22.96;40.76;101768.59;4182252;28;20040;-66
2022/05/04 02:33:21;;;;;;;3.75;1.20;;;;;;;22.96;41.03;101776.13;4181797;28;20415;-66
2022/05/04 02:37:58;;;;;;;1.65;1.05;;;;;;;22.95;40.76;101771.63;4174309;28;20545;-66
2022/05/04 02:40:00;;;;;;;3.28;1.30;;;;;;;22.97;40.98;101770.25;4181901;28;20094;-66
2022/05/04 02:42:01;;;;;;;1.45;1.00;;;;;;;22.97;40.99;101769.44;4182273;28;20099;-66
2022/05/04 02:44:03;;;;;;;2.75;1.23;;;;;;;22.98;40.48;101771.09;4180600;28;20041;-66
2022/05/04 02:46:16;;;;;;;1.88;1.10;;;;;;;22.96;40.65;101765.81;4175471;28;20037;-65
2022/05/04 02:48:17;;;;;;;1.77;1.00;;;;;;;22.97;40.61;101747.09;4184600;28;20511;-66
2022/05/04 02:50:19;;;;;;;2.78;1.20;;;;;;;22.97;40.35;101744.31;4184558;28;20040;-67
2022/05/04 02:52:20;;;;;;;1.73;0.90;;;;;;;22.96;40.24;101746.25;4191220;28;20414;-68
2022/05/04 02:54:21;;;;;;;2.35;0.93;;;;;;;22.96;40.39;101751.84;4181929;28;20087;-68
2022/05/04 02:56:23;;;;;;;2.25;1.00;;;;;;;22.99;40.52;101756.03;4181328;28;20091;-66
2022/05/04 02:58:24;;;;;;;1.20;0.98;;;;;;;23.00;40.36;101747.41;4182069;28;20102;-66
2022/05/04 03:00:26;;;;;;;1.85;1.10;;;;;;;22.96;40.32;101740.69;4187078;28;20491;-66
2022/05/04 03:02:27;;;;;;;6.35;1.23;;;;;;;22.93;40.49;101737.59;4177912;28;20122;-67
2022/05/04 03:04:31;;;;;;;1.55;0.90;;;;;;;22.93;40.79;101737.59;4165016;28;20041;-66
2022/05/04 03:06:37;;;;;;;1.02;0.88;;;;;;;22.90;40.50;101718.59;4165428;28;20038;-67
2022/05/04 03:08:41;;;;;;;3.83;1.02;;;;;;;22.95;40.40;101732.56;4179362;28;20028;-66
2022/05/04 03:13:02;;;;;;;4.50;1.17;;;;;;;22.94;40.33;101736.47;4190528;28;20089;-66
2022/05/04 03:15:07;;;;;;;2.40;0.98;;;;;;;22.85;40.56;101716.59;4180159;28;20459;-66
2022/05/04 03:17:14;;;;;;;0.82;0.77;;;;;;;22.77;40.28;101706.84;4177436;28;20537;-67
2022/05/04 03:19:15;;;;;;;2.72;1.52;;;;;;;22.84;40.29;101715.78;4179324;28;20130;-66
2022/05/04 03:21:17;;;;;;;3.78;1.30;;;;;;;22.89;40.09;101717.78;4180933;28;20110;-66
2022/05/04 03:23:18;;;;;;;1.67;1.02;;;;;;;22.87;40.38;101713.56;4176161;28;20037;-66
2022/05/04 03:25:19;;;;;;;3.53;1.00;;;;;;;22.70;40.44;101699.84;4171016;28;20562;-65
2022/05/04 03:27:21;;;;;;;1.35;0.90;;;;;;;22.78;40.35;101700.13;4183944;28;20053;-65
2022/05/04 03:29:22;;;;;;;2.35;0.85;;;;;;;22.88;40.33;101715.22;4168712;28;20040;-66
2022/05/04 03:31:23;;;;;;;2.63;1.00;;;;;;;22.81;40.51;101701.53;4180075;28;20080;-66
2022/05/04 03:33:25;;;;;;;2.97;1.10;;;;;;;22.88;40.33;101716.06;4183531;28;20044;-66
2022/05/04 03:35:27;;;;;;;6.07;1.20;;;;;;;22.90;40.53;101724.19;4178139;28;20087;-64
2022/05/04 03:37:28;;;;;;;1.45;0.90;;;;;;;22.91;40.42;101703.53;4181468;28;20427;-64
2022/05/04 03:39:30;;;;;;;1.27;0.80;;;;;;;22.92;40.23;101703.28;4181080;28;20682;-66
2022/05/04 03:41:32;;;;;;;1.50;0.82;;;;;;;22.89;40.66;101706.59;4164995;28;20485;-66
2022/05/04 03:43:33;;;;;;;1.63;0.85;;;;;;;22.92;40.78;101716.38;4176243;28;20037;-64
2022/05/04 03:45:34;;;;;;;2.25;1.10;;;;;;;22.91;40.58;101720.28;4180934;28;20041;-65
2022/05/04 03:47:39;;;;;;;1.67;1.08;;;;;;;22.90;40.79;101725.03;4180584;28;20075;-65
2022/05/04 03:49:40;;;;;;;3.10;0.80;;;;;;;22.77;40.38;101698.47;4176456;28;20103;-66
2022/05/04 03:51:42;;;;;;;3.50;1.10;;;;;;;22.84;40.53;101709.34;4180097;28;20037;-65
2022/05/04 03:53:44;;;;;;;1.60;1.02;;;;;;;22.91;40.84;101715.56;4179464;28;20094;-65
2022/05/04 03:55:45;;;;;;;2.38;1.10;;;;;;;22.95;40.43;101730.59;4179683;28;20487;-65
2022/05/04 03:57:46;;;;;;;1.33;1.00;;;;;;;22.97;40.61;101735.94;4181210;28;20041;-65
2022/05/04 03:59:48;;;;;;;2.80;0.90;;;;;;;22.90;40.80;101716.66;4181293;28;20118;-65
2022/05/04 04:01:49;;;;;;;1.25;0.95;;;;;;;22.96;40.75;101717.53;4181522;28;20087;-65
2022/05/04 04:03:50;;;;;;;2.65;0.77;;;;;;;22.79;40.71;101696.22;4181092;28;20055;-65
2022/05/04 04:06:01;;;;;;;2.95;0.90;;;;;;;22.94;40.63;101720.56;4180600;28;20037;-65
2022/05/04 04:08:03;;;;;;;1.95;0.75;;;;;;;22.95;40.62;101704.66;4180635;28;20049;-65
2022/05/04 04:10:04;;;;;;;2.10;0.95;;;;;;;22.94;40.77;101719.72;4180999;28;20045;-65
2022/05/04 04:12:09;;;;;;;2.60;0.90;;;;;;;22.89;40.94;101714.97;4182028;28;20107;-65
2022/05/04 04:14:10;;;;;;;1.67;0.90;;;;;;;22.96;40.80;101707.19;4196052;28;20044;-65
2022/05/04 04:16:16;;;;;;;0.93;0.70;;;;;;;22.91;40.93;101684.84;4196773;28;20036;-67
2022/05/04 04:18:22;;;;;;;2.22;1.27;;;;;;;22.94;40.79;101683.44;4194959;28;20115;-66
2022/05/04 04:22:44;;;;;;;1.83;0.88;;;;;;;22.92;40.93;101678.16;4181514;28;20086;-66
2022/05/04 04:24:48;;;;;;;2.05;1.00;;;;;;;22.96;40.55;101690.44;4180600;28;20091;-66
2022/05/04 04:26:50;;;;;;;1.58;0.85;;;;;;;22.95;40.70;101704.66;4180691;28;20473;-66
2022/05/04 04:28:51;;;;;;;5.78;1.45;;;;;;;22.98;40.74;101709.69;4180829;28;20041;-66
2022/05/04 04:30:53;;;;;;;3.03;1.60;;;;;;;22.98;40.76;101706.91;4194923;28;20040;-65
2022/05/04 04:32:57;;;;;;;1.77;1.10;;;;;;;22.97;40.79;101702.44;4200884;28;20044;-65
2022/05/04 04:34:58;;;;;;;3.23;0.80;;;;;;;22.96;40.98;101695.19;4191004;28;20075;-65
2022/05/04 04:37:00;;;;;;;1.23;0.80;;;;;;;22.90;40.84;101685.13;4184437;28;20094;-66
2022/05/04 04:39:02;;;;;;;1.88;1.15;;;;;;;22.91;40.76;101695.16;4186027;28;20106;-65
2022/05/04 04:41:03;;;;;;;2.47;0.95;;;;;;;22.96;40.85;101707.19;4183937;28;20041;-66
2022/05/04 04:43:04;;;;;;;2.05;0.88;;;;;;;22.93;40.70;101699.34;4183800;28;20103;-65
2022/05/04 04:45:06;;;;;;;2.30;1.10;;;;;;;22.94;41.17;101698.22;4183379;28;20033;-65
2022/05/04 04:47:08;;;;;;;1.30;0.95;;;;;;;22.94;40.72;101697.41;4183141;28;20098;-65
2022/05/04 04:49:09;;;;;;;2.00;1.15;;;;;;;22.96;40.93;101689.59;4184168;28;20354;-65
2022/05/04 04:51:10;;;;;;;1.77;0.88;;;;;;;22.93;40.86;101690.16;4184469;28;20040;-66
2022/05/04 04:53:13;;;;;;;2.88;0.98;;;;;;;22.95;41.07;101699.06;4184041;28;20090;-65
2022/05/04 04:55:17;;;;;;;1.90;0.98;;;;;;;22.95;40.86;101715.81;4183624;28;20044;-65
2022/05/04 04:57:18;;;;;;;1.17;1.00;;;;;;;22.95;40.88;101721.41;4183202;28;20045;-68
2022/05/04 04:59:20;;;;;;;2.47;1.00;;;;;;;22.98;40.79;101743.19;4183268;28;20033;-65
2022/05/04 05:01:21;;;;;;;2.50;0.85;;;;;;;22.96;41.27;101746.25;4183264;28;20538;-65
2022/05/04 05:03:23;;;;;;;1.45;0.98;;;;;;;22.96;41.17;101751.84;4183608;28;20118;-64
2022/05/04 05:05:27;;;;;;;2.15;0.95;;;;;;;22.96;41.29;101751.00;4199784;28;20097;-65
2022/05/04 05:07:31;;;;;;;1.48;1.10;;;;;;;22.93;41.26;101745.97;4200198;28;20036;-65
2022/05/04 05:09:35;;;;;;;1.05;0.88;;;;;;;22.96;41.21;101734.25;4187584;28;20041;-64
2022/05/04 05:11:36;;;;;;;2.38;0.95;;;;;;;22.95;40.92;101736.19;4185143;28;20087;-65
2022/05/04 05:16:06;;;;;;;3.13;1.08;;;;;;;22.96;41.04;101734.25;4183432;28;20099;-65
2022/05/04 05:16:08;;;;;;;1.95;1.17;;;;;;;22.97;41.22;101730.34;4191669;28;20044;-65
2022/05/04 05:18:12;;;;;;;2.40;1.27;;;;;;;22.98;41.07;101732.03;4198634;28;20048;-65
2022/05/04 05:20:19;;;;;;;1.77;0.90;;;;;;;22.90;41.16;101708.28;4185765;28;20468;-65
2022/05/04 05:22:21;;;;;;;1.80;1.10;;;;;;;22.97;41.23;101697.69;4186931;28;20041;-65
2022/05/04 05:24:22;;;;;;;2.13;0.98;;;;;;;22.92;41.28;101689.31;4183350;28;20041;-65
2022/05/04 05:26:23;;;;;;;2.40;1.10;;;;;;;22.96;40.94;101687.66;4182649;28;20538;-64
2022/05/04 05:28:25;;;;;;;1.33;0.93;;;;;;;22.96;41.01;101689.59;4183328;28;20086;-65
2022/05/04 05:30:26;;;;;;;2.85;1.33;;;;;;;22.95;41.33;101658.03;4186281;28;20048;-64
2022/05/04 05:32:31;;;;;;;1.50;1.00;;;;;;;22.94;41.32;101641.59;4199720;28;20102;-64
2022/05/04 05:34:33;;;;;;;2.45;1.60;;;;;;;22.94;41.16;101650.78;4196560;28;20487;-65
2022/05/04 05:36:36;;;;;;;3.45;1.30;;;;;;;22.95;41.25;101635.72;4176748;28;20045;-65
2022/05/04 05:38:37;;;;;;;1.23;1.02;;;;;;;22.94;41.03;101636.00;4185345;28;20446;-65
2022/05/04 05:40:39;;;;;;;1.85;1.05;;;;;;;22.95;41.19;101632.09;4183389;28;20103;-64
2022/05/04 05:42:40;;;;;;;1.77;0.88;;;;;;;22.81;41.13;101604.69;4181693;28;20094;-65
2022/05/04 05:44:44;;;;;;;2.75;1.00;;;;;;;22.76;41.22;101604.69;4184694;28;20102;-65
2022/05/04 05:46:46;;;;;;;2.13;1.23;;;;;;;22.78;41.41;101622.00;4181104;28;20088;-64
2022/05/04 05:48:50;;;;;;;3.17;0.95;;;;;;;22.93;41.24;101646.31;4183269;28;20041;-65
2022/05/04 05:50:52;;;;;;;1.47;1.00;;;;;;;22.93;41.41;101635.16;4182643;28;20037;-65
2022/05/04 05:52:53;;;;;;;2.00;1.13;;;;;;;22.95;41.33;101651.63;4182973;28;20262;-65
2022/05/04 05:54:54;;;;;;;1.55;1.05;;;;;;;22.93;41.18;101662.25;4185531;28;20053;-65
2022/05/04 05:56:56;;;;;;;1.77;0.80;;;;;;;22.96;41.16;101681.22;4182120;28;20439;-65
2022/05/04 05:58:57;;;;;;;1.20;0.77;;;;;;;22.96;41.36;101723.09;4182235;28;20049;-65
2022/05/04 06:00:59;;;;;;;2.17;1.00;;;;;;;22.94;41.39;101781.13;4182481;28;20099;-65
2022/05/04 06:03:00;;;;;;;2.05;1.10;;;;;;;22.95;41.11;101816.28;4182909;28;20091;-64
2022/05/04 06:05:01;;;;;;;2.42;1.17;;;;;;;22.91;41.12;101810.44;4185683;28;20044;-66
2022/05/04 06:07:03;;;;;;;1.92;1.13;;;;;;;22.96;41.12;101785.34;4197904;28;20090;-64
2022/05/04 06:09:05;;;;;;;1.17;0.98;;;;;;;22.95;41.54;101793.97;4197797;28;20036;-68
2022/05/04 06:11:06;;;;;;;2.08;1.10;;;;;;;22.91;41.29;101790.03;4197709;28;20101;-65
2022/05/04 06:13:08;;;;;;;1.25;1.15;;;;;;;22.95;41.25;101761.31;4195716;28;20114;-67
2022/05/04 06:15:10;;;;;;;0.85;0.80;;;;;;;22.97;41.14;101735.94;4199315;28;20040;-66
2022/05/04 06:17:14;;;;;;;2.15;0.90;;;;;;;22.92;41.10;101733.13;4197535;28;20056;-66
2022/05/04 06:19:16;;;;;;;1.20;0.90;;;;;;;22.96;41.31;101734.25;4197833;28;20454;-66
2022/05/04 06:21:17;;;;;;;1.52;1.05;;;;;;;22.90;41.49;101719.44;4197405;28;20340;-66
2022/05/04 06:23:18;;;;;;;1.75;0.73;;;;;;;22.94;41.05;101736.47;4195051;28;20036;-66
2022/05/04 06:25:20;;;;;;;1.42;0.90;;;;;;;22.88;41.57;101718.84;4195188;28;20048;-65
2022/05/04 06:27:21;;;;;;;1.67;1.23;;;;;;;22.96;41.50;101731.47;4197622;28;20090;-67
2022/05/04 06:34:06;;;;;;;1.83;0.82;;;;;;;22.86;41.04;101711.84;4198754;28;20551;-65
2022/05/04 06:34:07;;;;;;;2.72;1.17;;;;;;;22.95;41.25;101715.81;4197632;28;20078;-64
2022/05/04 06:36:09;;;;;;;1.70;0.95;;;;;;;22.94;41.26;101725.31;4187526;28;20037;-65
2022/05/04 06:38:10;;;;;;;2.28;1.00;;;;;;;22.94;41.03;101725.31;4183045;28;20036;-65
2022/05/04 06:40:12;;;;;;;2.80;1.17;;;;;;;22.95;41.32;101721.41;4196983;28;20037;-65
2022/05/04 06:42:17;;;;;;;0.90;0.70;;;;;;;22.94;41.45;101725.31;4197544;28;20044;-65
2022/05/04 06:44:19;;;;;;;2.00;0.82;;;;;;;22.94;41.29;101714.16;4197057;28;20093;-65
2022/05/04 06:46:20;;;;;;;1.40;0.85;;;;;;;22.94;41.38;101711.34;4187370;28;20087;-65
2022/05/04 06:48:25;;;;;;;1.77;1.17;;;;;;;22.93;41.43;101723.63;4196257;28;20384;-65
2022/05/04 06:50:26;;;;;;;2.15;0.85;;;;;;;22.93;41.08;101726.44;4197257;28;20040;-65
2022/05/04 06:52:28;;;;;;;1.80;0.95;;;;;;;22.91;41.34;101700.72;4184903;28;20044;-65
2022/05/04 06:54:35;;;;;;;5.68;1.10;;;;;;;22.92;41.41;101705.22;4194590;28;20100;-65
2022/05/04 06:56:36;;;;;;;1.50;0.77;;;;;;;22.90;41.43;101694.31;4196472;28;20422;-65
2022/05/04 06:58:43;;;;;;;1.55;1.13;;;;;;;22.87;41.53;101696.81;4183780;28;20040;-65
2022/05/04 07:00:47;;;;;;;3.67;1.65;;;;;;;22.90;41.26;101696.28;4186431;28;20024;-65
2022/05/04 07:02:48;;;;;;;1.30;0.90;;;;;;;22.92;41.17;101705.22;4192534;28;20044;-65
2022/05/04 07:04:49;;;;;;;0.93;0.90;;;;;;;22.81;41.34;101687.56;4197887;28;20437;-65
2022/05/04 07:06:51;;;;;;;1.50;1.15;;;;;;;22.88;41.50;101695.69;4197859;28;20040;-65
2022/05/04 07:08:52;;;;;;;1.88;0.90;;;;;;;22.89;41.45;101689.00;4194566;28;20045;-65
2022/05/04 07:10:54;;;;;;;2.00;1.13;;;;;;;22.88;41.42;101678.94;4182303;28;20036;-65
2022/05/04 07:12:55;;;;;;;2.20;0.93;;;;;;;22.88;41.32;101671.41;4181873;28;20041;-65
2022/05/04 07:14:57;;;;;;;1.90;1.10;;;;;;;22.85;41.61;101655.22;4181725;28;20090;-65
2022/05/04 07:17:02;;;;;;;2.17;1.00;;;;;;;22.86;41.79;101650.47;4180996;28;20110;-65
2022/05/04 07:19:03;;;;;;;2.20;0.95;;;;;;;22.88;41.41;101639.88;4181806;28;20083;-65
2022/05/04 07:21:05;;;;;;;2.00;1.17;;;;;;;22.87;41.64;101625.09;4195664;28;20369;-65
2022/05/04 07:23:21;;;;;;;1.65;1.08;;;;;;;22.90;41.47;101630.13;4197943;28;20480;-65
2022/05/04 07:25:23;;;;;;;2.03;1.02;;;;;;;22.90;41.43;101601.38;4197542;28;20100;-65
2022/05/04 07:27:24;;;;;;;2.53;1.17;;;;;;;22.88;41.31;101570.13;4198363;28;20037;-65
2022/05/04 07:29:26;;;;;;;1.58;0.93;;;;;;;22.88;41.61;101575.69;4198491;28;20086;-65
2022/05/04 07:31:27;;;;;;;2.30;1.10;;;;;;;22.88;41.18;101578.47;4190918;28;20036;-66
2022/05/04 07:33:28;;;;;;;2.22;1.00;;;;;;;22.88;41.40;101575.69;4184082;28;20573;-65
2022/05/04 07:35:30;;;;;;;1.48;0.90;;;;;;;22.87;41.28;101568.44;4181811;28;20040;-64
2022/05/04 07:37:32;;;;;;;1.92;1.10;;;;;;;22.86;41.34;101566.75;4191246;28;20044;-65
2022/05/04 07:44:18;;;;;;;2.90;1.00;;;;;;;22.75;41.42;101555.59;4197362;28;20096;-66
2022/05/04 07:46:22;;;;;;;1.77;1.00;;;;;;;22.86;41.20;101558.38;4194599;28;20045;-65
2022/05/04 07:48:28;;;;;;;3.17;1.30;;;;;;;22.88;41.64;101548.63;4184620;28;20079;-65
2022/05/04 07:50:30;;;;;;;1.67;1.38;;;;;;;22.81;41.57;101520.16;4184031;28;20086;-66
2022/05/04 07:52:32;;;;;;;2.78;1.20;;;;;;;22.88;41.37;101522.66;4180711;28;20104;-65
2022/05/04 07:54:33;;;;;;;1.75;0.90;;;;;;;22.86;41.54;101542.47;4180213;28;20091;-65
2022/05/04 07:56:35;;;;;;;2.15;0.95;;;;;;;22.85;41.80;101554.75;4181624;28;20045;-65
2022/05/04 07:58:36;;;;;;;1.77;0.98;;;;;;;22.84;41.33;101559.50;4179492;28;20090;-64
2022/05/04 08:05:24;;;;;;;1.65;1.05;;;;;;;22.70;41.64;101541.66;4181520;28;20095;-66
2022/05/04 08:07:25;;;;;;;1.33;0.90;;;;;;;22.87;41.41;101566.50;4188238;28;20122;-66
2022/05/04 08:09:27;;;;;;;2.28;1.10;;;;;;;22.83;41.65;101580.16;4189436;28;20509;-64
2022/05/04 08:11:28;;;;;;;1.58;0.98;;;;;;;22.86;41.58;101581.53;4200897;28;20086;-64
2022/05/04 08:13:31;;;;;;;1.10;1.00;;;;;;;22.86;41.75;101561.16;4194035;28;20339;-64
2022/05/04 08:15:32;;;;;;;1.88;1.10;;;;;;;22.87;41.59;101562.88;4198488;28;20459;-64
2022/05/04 08:17:34;;;;;;;2.67;1.20;;;;;;;22.87;41.33;101562.88;4193716;28;20045;-65
2022/05/04 08:19:35;;;;;;;3.63;1.48;;;;;;;22.87;41.69;101568.44;4183888;28;20045;-65
2022/05/04 08:21:39;;;;;;;1.77;1.20;;;;;;;22.86;41.32;101550.00;4183575;28;20041;-65
2022/05/04 08:23:43;;;;;;;1.97;0.90;;;;;;;22.87;41.53;101571.25;4198574;28;20472;-66
2022/05/04 08:25:45;;;;;;;2.10;0.95;;;;;;;22.88;41.36;101575.69;4193352;28;20032;-65
2022/05/04 08:27:46;;;;;;;1.45;1.10;;;;;;;22.87;41.72;101586.03;4198363;28;20090;-65
2022/05/04 08:29:47;;;;;;;2.67;1.10;;;;;;;22.88;41.73;101609.19;4199409;28;20107;-65
2022/05/04 08:31:52;;;;;;;2.55;1.02;;;;;;;22.89;41.44;101613.63;4204083;28;20033;-65
2022/05/04 08:33:54;;;;;;;1.80;0.98;;;;;;;22.88;41.55;101606.41;4199456;28;20048;-65
2022/05/04 08:35:55;;;;;;;1.45;0.93;;;;;;;22.87;41.59;101601.94;4197400;28;20090;-65
2022/05/04 08:37:57;;;;;;;1.52;1.00;;;;;;;22.78;41.54;101582.94;4184280;28;20091;-65
2022/05/04 08:39:58;;;;;;;1.45;0.88;;;;;;;22.84;41.79;101587.41;4184335;28;20045;-65
2022/05/04 08:42:00;;;;;;;1.27;0.90;;;;;;;22.85;41.50;101588.25;4183394;28;20452;-65
2022/05/04 08:44:04;;;;;;;1.83;0.90;;;;;;;22.82;41.77;101581.28;4183089;28;20480;-65
2022/05/04 08:46:06;;;;;;;3.15;1.00;;;;;;;22.82;41.38;101584.06;4188567;28;20094;-65
2022/05/04 08:48:11;;;;;;;1.80;1.00;;;;;;;22.83;41.80;101585.75;4192146;28;20099;-66
2022/05/04 08:50:15;;;;;;;2.15;1.33;;;;;;;22.82;41.42;101567.31;4186620;28;20044;-66
2022/05/04 08:52:23;;;;;;;2.97;1.10;;;;;;;22.86;41.41;101558.38;4197843;28;20045;-66
2022/05/04 08:54:24;;;;;;;1.90;1.00;;;;;;;22.87;41.74;101557.28;4197860;28;20033;-66
2022/05/04 08:56:26;;;;;;;1.73;1.05;;;;;;;22.87;41.33;101546.13;4195032;28;20097;-66
2022/05/04 08:58:28;;;;;;;2.78;1.10;;;;;;;22.85;41.45;101538.00;4186250;28;20049;-66
2022/05/04 09:00:29;;;;;;;2.15;1.30;;;;;;;22.83;41.50;101529.09;4185285;28;20118;-66
2022/05/04 09:02:30;;;;;;;2.28;1.10;;;;;;;22.76;41.77;101509.00;4196354;28;20467;-65
2022/05/04 09:04:34;;;;;;;1.80;1.00;;;;;;;22.70;41.85;101491.44;4194170;28;20040;-66
2022/05/04 09:06:43;;;;;;;2.17;0.87;;;;;;;22.81;41.85;101495.03;4200041;28;20419;-65
2022/05/04 09:09:06;;;;;;;1.90;0.90;;;;;;;22.78;42.07;101499.25;4196307;28;20423;-66
2022/05/04 09:11:15;;;;;;;1.90;1.10;;;;;;;22.75;41.79;101494.22;4183595;28;20476;-66
2022/05/04 09:13:20;;;;;;;1.35;0.98;;;;;;;22.80;41.72;101502.56;4192702;28;20049;-66
2022/05/04 09:15:29;;;;;;;1.75;1.23;;;;;;;22.81;41.62;101476.34;4197608;28;20040;-66
2022/05/04 09:17:30;;;;;;;1.75;0.93;;;;;;;22.81;41.48;101454.00;4196254;28;20422;-66
2022/05/04 09:19:32;;;;;;;2.33;0.95;;;;;;;22.82;41.88;101444.56;4199299;28;20129;-65
2022/05/04 09:21:38;;;;;;;2.80;1.38;;;;;;;22.80;41.78;101438.41;4199525;28;20048;-65
2022/05/04 09:23:41;;;;;;;1.65;0.93;;;;;;;22.78;41.88;101446.22;4192989;28;20044;-65
2022/05/04 09:25:43;;;;;;;4.05;1.25;;;;;;;22.79;41.68;101464.63;4186685;28;20040;-66
2022/05/04 09:27:46;;;;;;;1.42;1.10;;;;;;;22.79;41.79;101481.38;4197760;28;20033;-66
2022/05/04 09:29:59;;;;;;;1.10;0.88;;;;;;;22.77;41.72;101466.00;4196720;28;20029;-66
2022/05/04 09:32:11;;;;;;;1.50;0.95;;;;;;;22.80;41.63;101480.25;4195385;28;20480;-66
2022/05/04 09:34:13;;;;;;;2.70;0.98;;;;;;;22.75;41.90;101455.16;4184774;28;20110;-63
2022/05/04 09:36:28;;;;;;;1.92;1.17;;;;;;;22.79;41.67;101442.31;4181942;28;20071;-64
2022/05/04 09:45:32;;;;;;;2.25;1.30;;;;;;;22.80;41.86;101434.78;4198568;28;20090;-65
2022/05/04 09:47:36;;;;;;;2.05;1.27;;;;;;;22.74;41.79;101431.16;4196437;28;20057;-66
2022/05/04 09:49:40;;;;;;;1.30;0.85;;;;;;;22.78;41.89;101459.34;4196935;28;20492;-66
2022/05/04 09:51:45;;;;;;;1.58;1.10;;;;;;;22.76;41.64;101464.34;4194290;28;20114;-66
2022/05/04 09:53:47;;;;;;;1.33;0.77;;;;;;;22.73;42.03;101468.56;4188416;28;20044;-65
2022/05/04 09:55:49;;;;;;;3.10;1.10;;;;;;;22.75;41.74;101477.47;4190002;28;20446;-66
2022/05/04 09:57:51;;;;;;;1.23;0.90;;;;;;;22.73;41.72;101479.72;4195842;28;20048;-66
2022/05/04 09:59:54;;;;;;;1.40;1.10;;;;;;;22.77;41.80;101478.03;4198050;28;20106;-65